createdAt,value
2023-05-14T00:01:46.693Z,100765.13
2023-05-14T00:04:49.663Z,100756.34
2023-05-14T00:07:52.266Z,100752.63
2023-05-14T00:10:55.189Z,100755.81
2023-05-14T00:13:57.821Z,100753.13
2023-05-14T00:17:00.725Z,100749.50
2023-05-14T00:20:07.214Z,100745.09
2023-05-14T00:23:10.743Z,100740.31
2023-05-14T00:26:13.424Z,100738.16
2023-05-14T00:29:17.947Z,100734.28
2023-05-14T00:32:20.830Z,100724.41
2023-05-14T00:35:23.949Z,100724.00
2023-05-14T00:38:28.625Z,100717.44
2023-05-14T00:41:31.612Z,100722.84
2023-05-14T00:44:34.428Z,100713.44
2023-05-14T00:47:39.504Z,100722.28
2023-05-14T00:50:42.994Z,100732.47
2023-05-14T00:53:47.316Z,100732.50
2023-05-14T00:56:51.092Z,100721.44
2023-05-14T00:59:54.138Z,100726.53
2023-05-14T01:02:56.906Z,100719.75
2023-05-14T01:06:11.961Z,100707.66
2023-05-14T01:09:42.685Z,100721.44
2023-05-14T01:13:02.299Z,100710.38
2023-05-14T01:16:07.504Z,100706.03
2023-05-14T01:19:21.807Z,100686.66
2023-05-14T01:22:24.528Z,100692.97
2023-05-14T01:25:27.579Z,100709.25
2023-05-14T01:28:35.366Z,100704.19
2023-05-14T01:31:41.629Z,100703.41
2023-05-14T01:34:47.470Z,100706.53
2023-05-14T01:37:50.918Z,100693.12
2023-05-14T01:40:55.004Z,100686.84
2023-05-14T01:43:58.307Z,100684.19
2023-05-14T01:47:01.085Z,100690.87
2023-05-14T01:50:04.157Z,100666.78
2023-05-14T01:53:07.125Z,100691.63
2023-05-14T01:56:10.282Z,100684.31
2023-05-14T01:59:12.981Z,100687.91
2023-05-14T02:02:15.876Z,100685.53
2023-05-14T02:05:19.169Z,100677.34
2023-05-14T02:08:22.186Z,100671.34
2023-05-14T02:11:25.306Z,100679.78
2023-05-14T02:14:28.323Z,100675.94
2023-05-14T02:17:31.084Z,100651.06
2023-05-14T02:20:34.075Z,100670.47
2023-05-14T02:23:41.583Z,100678.00
2023-05-14T02:26:44.975Z,100680.69
2023-05-14T02:29:47.757Z,100669.34
2023-05-14T02:32:50.936Z,100674.00
2023-05-14T02:35:53.962Z,100669.94
2023-05-14T02:38:59.460Z,100666.72
2023-05-14T02:42:02.024Z,100668.28
2023-05-14T02:45:05.606Z,100665.13
2023-05-14T02:48:08.692Z,100668.63
2023-05-14T02:51:12.099Z,100667.13
2023-05-14T02:54:16.536Z,100667.59
2023-05-14T02:57:19.534Z,100645.09
2023-05-14T03:00:22.402Z,100651.22
2023-05-14T03:03:25.856Z,100659.88
2023-05-14T03:06:29.013Z,100654.03
2023-05-14T03:09:31.921Z,100647.22
2023-05-14T03:12:34.574Z,100643.34
2023-05-14T03:15:37.576Z,100619.97
2023-05-14T03:18:40.288Z,100639.41
2023-05-14T03:21:44.926Z,100631.41
2023-05-14T03:24:47.576Z,100645.22
2023-05-14T03:27:50.440Z,100642.78
2023-05-14T03:30:53.174Z,100638.16
2023-05-14T03:33:56.072Z,100647.91
2023-05-14T03:36:59.326Z,100643.66
2023-05-14T03:40:02.321Z,100639.25
2023-05-14T03:43:05.003Z,100637.81
2023-05-14T03:46:07.979Z,100640.44
2023-05-14T03:49:10.822Z,100638.56
2023-05-14T03:52:13.885Z,100632.31
2023-05-14T03:55:22.547Z,100638.59
2023-05-14T03:58:25.962Z,100629.75
2023-05-14T04:01:29.015Z,100634.59
2023-05-14T04:04:33.833Z,100629.16
2023-05-14T04:07:38.040Z,100633.34
2023-05-14T04:10:40.986Z,100631.81
2023-05-14T04:13:43.673Z,100634.66
2023-05-14T04:16:46.718Z,100633.47
2023-05-14T04:19:49.343Z,100636.19
2023-05-14T04:22:52.457Z,100636.72
2023-05-14T04:25:55.229Z,100637.91
2023-05-14T04:28:58.412Z,100637.13
2023-05-14T04:32:01.077Z,100640.81
2023-05-14T04:35:04.804Z,100640.16
2023-05-14T04:38:07.598Z,100648.06
2023-05-14T04:41:10.529Z,100643.25
2023-05-14T04:44:13.362Z,100636.41
2023-05-14T04:47:16.226Z,100622.88
2023-05-14T04:50:18.795Z,100644.53
2023-05-14T04:53:21.796Z,100640.75
2023-05-14T04:56:25.714Z,100626.59
2023-05-14T04:59:31.830Z,100635.28
2023-05-14T05:02:34.903Z,100629.03
2023-05-14T05:05:37.836Z,100626.69
2023-05-14T05:08:41.097Z,100636.84
2023-05-14T05:11:44.135Z,100613.22
2023-05-14T05:14:46.917Z,100625.06
2023-05-14T05:17:49.859Z,100621.84
2023-05-14T05:20:52.511Z,100614.84
2023-05-14T05:23:55.853Z,100613.50
2023-05-14T05:26:58.491Z,100609.87
2023-05-14T05:30:04.770Z,100604.59
2023-05-14T05:33:07.927Z,100604.50
2023-05-14T05:36:10.940Z,100611.97
2023-05-14T05:39:13.557Z,100618.62
2023-05-14T05:42:16.504Z,100614.06
2023-05-14T05:45:19.123Z,100617.25
2023-05-14T05:48:21.994Z,100621.66
2023-05-14T05:51:24.539Z,100620.91
2023-05-14T05:54:27.667Z,100622.81
2023-05-14T05:57:30.221Z,100613.47
2023-05-14T06:00:33.431Z,100621.25
2023-05-14T06:03:36.389Z,100614.97
2023-05-14T06:06:38.963Z,100604.97
2023-05-14T06:09:41.843Z,100603.56
2023-05-14T06:12:44.399Z,100612.31
2023-05-14T06:15:47.449Z,100610.03
2023-05-14T06:18:50.069Z,100593.56
2023-05-14T06:21:52.918Z,100603.22
2023-05-14T06:24:55.524Z,100595.12
2023-05-14T06:27:58.401Z,100601.53
2023-05-14T06:31:00.996Z,100598.94
2023-05-14T06:34:03.967Z,100593.56
2023-05-14T06:37:07.145Z,100595.81
2023-05-14T06:40:10.920Z,100592.81
2023-05-14T06:43:13.578Z,100581.00
2023-05-14T06:46:16.479Z,100580.59
2023-05-14T06:49:19.165Z,100581.03
2023-05-14T06:52:22.190Z,100591.31
2023-05-14T06:55:24.882Z,100590.56
2023-05-14T06:58:27.786Z,100593.66
2023-05-14T07:01:30.640Z,100584.03
2023-05-14T07:04:33.737Z,100587.62
2023-05-14T07:07:36.378Z,100576.28
2023-05-14T07:10:39.694Z,100558.94
2023-05-14T07:13:43.035Z,100553.56
2023-05-14T07:16:47.127Z,100547.78
2023-05-14T07:19:49.940Z,100553.47
2023-05-14T07:22:53.026Z,100559.75
2023-05-14T07:25:55.805Z,100560.66
2023-05-14T07:28:58.712Z,100555.06
2023-05-14T07:32:01.982Z,100557.41
2023-05-14T07:35:06.320Z,100548.38
2023-05-14T07:38:08.973Z,100541.97
2023-05-14T07:41:12.424Z,100534.91
2023-05-14T07:44:15.065Z,100535.75
2023-05-14T07:47:17.986Z,100540.78
2023-05-14T07:50:20.811Z,100536.81
2023-05-14T07:53:25.041Z,100539.13
2023-05-14T07:56:27.752Z,100531.13
2023-05-14T07:59:31.310Z,100528.84
2023-05-14T08:02:34.257Z,100500.50
2023-05-14T08:05:37.270Z,100511.09
2023-05-14T08:08:39.857Z,100504.75
2023-05-14T08:11:43.104Z,100507.56
2023-05-14T08:14:46.163Z,100493.78
2023-05-14T08:17:49.084Z,100495.13
2023-05-14T08:20:52.116Z,100478.50
2023-05-14T08:23:55.050Z,100487.25
2023-05-14T08:26:57.653Z,100488.75
2023-05-14T08:30:00.560Z,100482.09
2023-05-14T08:33:03.303Z,100482.62
2023-05-14T08:36:07.362Z,100484.66
2023-05-14T08:39:10.035Z,100483.44
2023-05-14T08:42:13.977Z,100491.19
2023-05-14T08:45:21.573Z,100489.72
2023-05-14T08:48:29.392Z,100498.66
2023-05-14T08:51:33.304Z,100470.59
2023-05-14T08:54:36.690Z,100487.53
2023-05-14T08:57:40.106Z,100488.59
2023-05-14T09:00:43.110Z,100483.47
2023-05-14T09:03:47.013Z,100479.62
2023-05-14T09:06:54.121Z,100458.59
2023-05-14T09:09:56.757Z,100479.91
2023-05-14T09:13:00.166Z,100481.69
2023-05-14T09:16:03.448Z,100477.56
2023-05-14T09:19:07.340Z,100483.03
2023-05-14T09:22:13.091Z,100473.50
2023-05-14T09:25:16.611Z,100473.16
2023-05-14T09:28:21.257Z,100469.59
2023-05-14T09:31:24.268Z,100467.94
2023-05-14T09:34:32.231Z,100467.13
2023-05-14T09:37:36.920Z,100459.22
2023-05-14T09:40:39.556Z,100437.28
2023-05-14T09:43:43.032Z,100438.09
2023-05-14T09:46:46.447Z,100430.13
2023-05-14T09:49:49.925Z,100435.25
2023-05-14T09:52:56.011Z,100410.88
2023-05-14T09:55:59.014Z,100404.28
2023-05-14T09:59:02.086Z,100406.47
2023-05-14T10:02:07.205Z,100391.56
2023-05-14T10:05:13.345Z,100386.44
2023-05-14T10:08:27.624Z,100368.75
2023-05-14T10:11:33.831Z,100367.47
2023-05-14T10:14:42.504Z,100371.53
2023-05-14T10:17:56.685Z,100372.53
2023-05-14T10:21:06.591Z,100367.28
2023-05-14T10:24:10.044Z,100351.19
2023-05-14T10:27:12.812Z,100341.94
2023-05-14T10:30:15.862Z,100341.94
2023-05-14T10:33:18.946Z,100340.00
2023-05-14T10:36:22.433Z,100349.81
2023-05-14T10:39:41.056Z,100354.16
2023-05-14T10:42:45.269Z,100328.09
2023-05-14T10:45:48.226Z,100326.09
2023-05-14T10:48:51.185Z,100321.00
2023-05-14T10:51:54.222Z,100327.06
2023-05-14T10:55:02.691Z,100333.31
2023-05-14T10:58:08.114Z,100332.97
2023-05-14T11:01:13.175Z,100322.00
2023-05-14T11:04:19.790Z,100314.94
2023-05-14T11:07:27.279Z,100301.13
2023-05-14T11:10:30.246Z,100318.84
2023-05-14T11:13:34.714Z,100333.38
2023-05-14T11:16:37.835Z,100319.66
2023-05-14T11:19:44.082Z,100297.19
2023-05-14T11:22:48.375Z,100310.63
2023-05-14T11:25:55.835Z,100298.81
2023-05-14T11:28:58.562Z,100297.28
2023-05-14T11:32:02.221Z,100302.00
2023-05-14T11:35:05.236Z,100299.62
2023-05-14T11:38:13.461Z,100290.97
2023-05-14T11:41:16.282Z,100280.75
2023-05-14T11:44:19.294Z,100276.03
2023-05-14T11:47:22.975Z,100258.72
2023-05-14T11:50:25.991Z,100268.56
2023-05-14T11:53:31.062Z,100253.63
2023-05-14T11:56:33.978Z,100261.06
2023-05-14T11:59:37.087Z,100260.69
2023-05-14T12:02:40.201Z,100256.34
2023-05-14T12:05:56.156Z,100252.41
2023-05-14T12:08:58.748Z,100246.09
2023-05-14T12:12:08.895Z,100233.13
2023-05-14T12:15:13.574Z,100229.56
2023-05-14T12:18:24.513Z,100216.87
2023-05-14T12:21:29.184Z,100196.91
2023-05-14T12:24:32.173Z,100209.81
2023-05-14T12:27:37.817Z,100204.72
2023-05-14T12:30:41.358Z,100209.06
2023-05-14T12:33:43.909Z,100211.03
2023-05-14T12:36:46.804Z,100222.44
2023-05-14T12:39:49.412Z,100224.03
2023-05-14T12:42:52.746Z,100212.25
2023-05-14T12:45:56.197Z,100220.91
2023-05-14T12:48:59.246Z,100207.50
2023-05-14T12:52:19.422Z,100215.38
2023-05-14T12:55:25.187Z,100205.16
2023-05-14T12:58:27.887Z,100211.84
2023-05-14T13:01:30.895Z,100205.97
2023-05-14T13:04:34.042Z,100195.72
2023-05-14T13:07:37.370Z,100209.91
2023-05-14T13:10:39.973Z,100202.81
2023-05-14T13:13:42.885Z,100185.50
2023-05-14T13:16:45.687Z,100182.34
2023-05-14T13:19:48.723Z,100169.69
2023-05-14T13:22:51.390Z,100162.59
2023-05-14T13:25:54.377Z,100148.47
2023-05-14T13:28:56.988Z,100140.19
2023-05-14T13:31:59.946Z,100131.94
2023-05-14T13:35:02.572Z,100127.63
2023-05-14T13:38:05.438Z,100126.38
2023-05-14T13:41:08.369Z,100123.28
2023-05-14T13:44:11.305Z,100116.91
2023-05-14T13:47:13.930Z,100112.91
2023-05-14T13:50:16.912Z,100103.75
2023-05-14T13:53:23.130Z,100104.81
2023-05-14T13:56:26.314Z,100126.00
2023-05-14T13:59:29.026Z,100120.06
2023-05-14T14:02:34.031Z,100109.47
2023-05-14T14:05:37.344Z,100109.06
2023-05-14T14:08:40.076Z,100091.31
2023-05-14T14:11:43.142Z,100106.25
2023-05-14T14:14:46.131Z,100088.94
2023-05-14T14:17:49.242Z,100088.91
2023-05-14T14:20:52.684Z,100085.03
2023-05-14T14:23:55.846Z,100069.69
2023-05-14T14:26:58.427Z,100072.97
2023-05-14T14:30:01.506Z,100068.63
2023-05-14T14:33:04.511Z,100068.13
2023-05-14T14:36:07.717Z,100067.78
2023-05-14T14:39:10.295Z,100059.91
2023-05-14T14:42:13.222Z,100059.12
2023-05-14T14:45:16.005Z,100050.06
2023-05-14T14:48:39.220Z,100063.13
2023-05-14T14:51:42.101Z,100071.00
2023-05-14T14:54:45.018Z,100074.16
2023-05-14T14:57:47.617Z,100074.16
2023-05-14T15:00:53.322Z,100077.28
2023-05-14T15:03:55.906Z,100070.22
2023-05-14T15:06:58.946Z,100050.41
2023-05-14T15:10:01.731Z,100045.66
2023-05-14T15:13:06.475Z,100044.34
2023-05-14T15:16:09.264Z,100036.84
2023-05-14T15:19:12.323Z,100008.44
2023-05-14T15:22:15.136Z,100024.91
2023-05-14T15:25:19.057Z,100029.22
2023-05-14T15:28:21.679Z,100021.88
2023-05-14T15:31:24.960Z,100008.44
2023-05-14T15:34:27.678Z,100017.84
2023-05-14T15:37:38.905Z,100008.41
2023-05-14T15:40:41.718Z,100008.34
2023-05-14T15:43:44.698Z,100022.22
2023-05-14T15:46:47.361Z,100017.59
2023-05-14T15:49:50.290Z,100010.13
2023-05-14T15:52:53.204Z,100011.72
2023-05-14T15:55:56.601Z,100017.63
2023-05-14T15:58:59.232Z,100018.06
2023-05-14T16:02:02.391Z,100010.53
2023-05-14T16:05:05.987Z,99999.50
2023-05-14T16:08:08.631Z,99988.06
2023-05-14T16:11:11.550Z,99988.06
2023-05-14T16:14:14.158Z,99994.31
2023-05-14T16:17:17.071Z,99971.37
2023-05-14T16:20:19.779Z,99968.88
2023-05-14T16:23:22.816Z,99966.91
2023-05-14T16:26:26.481Z,99967.59
2023-05-14T16:29:29.339Z,99962.50
2023-05-14T16:32:31.936Z,99962.87
2023-05-14T16:35:35.027Z,99957.03
2023-05-14T16:38:44.590Z,99955.56
2023-05-14T16:41:55.632Z,99971.28
2023-05-14T16:44:58.264Z,99976.88
2023-05-14T16:48:01.584Z,99955.75
2023-05-14T16:51:04.362Z,99975.00
2023-05-14T16:54:07.389Z,99957.28
2023-05-14T16:57:10.135Z,99940.41
2023-05-14T17:00:14.394Z,99943.94
2023-05-14T17:03:17.130Z,99944.75
2023-05-14T17:06:20.767Z,99935.28
2023-05-14T17:09:23.725Z,99941.66
2023-05-14T17:12:27.105Z,99938.47
2023-05-14T17:15:29.964Z,99934.53
2023-05-14T17:18:33.097Z,99929.00
2023-05-14T17:21:35.834Z,99919.94
2023-05-14T17:24:39.204Z,99925.09
2023-05-14T17:27:42.150Z,99922.78
2023-05-14T17:30:45.075Z,99909.37
2023-05-14T17:33:47.806Z,99911.75
2023-05-14T17:36:51.067Z,99913.69
2023-05-14T17:39:53.808Z,99912.50
2023-05-14T17:42:56.924Z,99911.72
2023-05-14T17:45:59.822Z,99903.88
2023-05-14T17:49:02.927Z,99907.88
2023-05-14T17:52:06.619Z,99902.00
2023-05-14T17:55:10.898Z,99887.84
2023-05-14T17:58:15.527Z,99888.31
2023-05-14T18:01:19.117Z,99906.38
2023-05-14T18:04:22.477Z,99922.13
2023-05-14T18:07:25.571Z,99909.94
2023-05-14T18:10:29.747Z,99882.81
2023-05-14T18:13:32.468Z,99879.28
2023-05-14T18:16:37.392Z,99888.38
2023-05-14T18:19:41.095Z,99889.59
2023-05-14T18:22:44.244Z,99886.47
2023-05-14T18:25:48.085Z,99901.00
2023-05-14T18:28:51.730Z,99908.13
2023-05-14T18:31:54.688Z,99887.69
2023-05-14T18:34:57.744Z,99905.00
2023-05-14T18:38:00.894Z,99899.12
2023-05-14T18:41:04.049Z,99901.09
2023-05-14T18:44:06.822Z,99895.56
2023-05-14T18:47:10.070Z,99905.81
2023-05-14T18:50:12.652Z,99890.06
2023-05-14T18:53:16.073Z,99899.50
2023-05-14T18:56:18.876Z,99892.09
2023-05-14T18:59:21.803Z,99897.19
2023-05-14T19:02:24.822Z,99889.72
2023-05-14T19:05:28.136Z,99878.78
2023-05-14T19:08:31.502Z,99875.62
2023-05-14T19:11:34.424Z,99889.34
2023-05-14T19:14:37.355Z,99893.28
2023-05-14T19:17:40.525Z,99894.84
2023-05-14T19:20:46.266Z,99904.22
2023-05-14T19:23:49.128Z,99896.75
2023-05-14T19:26:51.855Z,99899.94
2023-05-14T19:29:54.785Z,99879.87
2023-05-14T19:32:57.652Z,99849.53
2023-05-14T19:36:00.806Z,99859.41
2023-05-14T19:39:04.021Z,99852.31
2023-05-14T19:42:06.994Z,99875.12
2023-05-14T19:45:10.333Z,99864.53
2023-05-14T19:48:14.367Z,99858.59
2023-05-14T19:51:17.183Z,99852.72
2023-05-14T19:54:20.203Z,99844.84
2023-05-14T19:57:22.913Z,99847.59
2023-05-14T20:00:26.633Z,99841.34
2023-05-14T20:03:30.062Z,99852.34
2023-05-14T20:06:34.290Z,99838.19
2023-05-14T20:09:37.281Z,99841.34
2023-05-14T20:12:40.682Z,99840.16
2023-05-14T20:15:43.552Z,99842.16
2023-05-14T20:18:46.432Z,99839.78
2023-05-14T20:21:49.427Z,99828.03
2023-05-14T20:24:52.768Z,99828.03
2023-05-14T20:27:55.780Z,99832.72
2023-05-14T20:31:03.113Z,99828.03
2023-05-14T20:34:06.224Z,99828.78
2023-05-14T20:37:09.402Z,99825.66
2023-05-14T20:40:12.826Z,99820.56
2023-05-14T20:43:15.595Z,99815.84
2023-05-14T20:46:18.567Z,99824.06
2023-05-14T20:49:21.215Z,99826.03
2023-05-14T20:52:24.240Z,99814.62
2023-05-14T20:55:27.355Z,99805.22
2023-05-14T20:58:30.782Z,99801.31
2023-05-14T21:01:33.375Z,99801.31
2023-05-14T21:04:36.316Z,99796.16
2023-05-14T21:07:39.516Z,99790.66
2023-05-14T21:10:42.436Z,99782.38
2023-05-14T21:13:45.010Z,99795.78
2023-05-14T21:16:48.175Z,99806.00
2023-05-14T21:19:50.912Z,99809.97
2023-05-14T21:22:53.861Z,99815.44
2023-05-14T21:25:56.556Z,99811.16
2023-05-14T21:29:01.335Z,99818.63
2023-05-14T21:32:04.263Z,99820.19
2023-05-14T21:35:07.569Z,99824.88
2023-05-14T21:38:10.343Z,99819.78
2023-05-14T21:41:13.659Z,99793.03
2023-05-14T21:44:16.259Z,99805.63
2023-05-14T21:47:19.977Z,99812.75
2023-05-14T21:50:22.561Z,99816.31
2023-05-14T21:53:25.495Z,99831.25
2023-05-14T21:56:28.213Z,99861.97
2023-05-14T21:59:31.167Z,99866.31
2023-05-14T22:02:33.816Z,99869.81
2023-05-14T22:05:36.746Z,99869.88
2023-05-14T22:08:39.358Z,99873.38
2023-05-14T22:11:42.213Z,99869.09
2023-05-14T22:14:44.812Z,99843.94
2023-05-14T22:17:48.220Z,99854.88
2023-05-14T22:20:51.282Z,99856.47
2023-05-14T22:23:54.301Z,99849.81
2023-05-14T22:26:56.890Z,99843.59
2023-05-14T22:30:00.146Z,99856.22
2023-05-14T22:33:02.898Z,99840.91
2023-05-14T22:36:07.099Z,99837.81
2023-05-14T22:39:11.261Z,99809.56
2023-05-14T22:42:15.679Z,99826.84
2023-05-14T22:45:18.519Z,99839.06
2023-05-14T22:48:21.354Z,99840.22
2023-05-14T22:51:23.957Z,99844.19
2023-05-14T22:54:26.923Z,99841.03
2023-05-14T22:57:29.794Z,99836.69
2023-05-14T23:00:32.760Z,99841.81
2023-05-14T23:03:35.601Z,99834.00
2023-05-14T23:06:38.584Z,99842.63
2023-05-14T23:09:41.290Z,99843.03
2023-05-14T23:12:44.201Z,99834.41
2023-05-14T23:15:46.862Z,99829.66
2023-05-14T23:18:49.966Z,99814.38
2023-05-14T23:21:52.754Z,99807.69
2023-05-14T23:24:55.700Z,99810.44
2023-05-14T23:27:58.333Z,99803.34
2023-05-14T23:31:01.255Z,99798.66
2023-05-14T23:34:03.848Z,99789.25
2023-05-14T23:37:06.780Z,99789.66
2023-05-14T23:40:09.909Z,99793.59
2023-05-14T23:43:12.837Z,99773.63
2023-05-14T23:46:15.955Z,99791.62
2023-05-14T23:49:18.963Z,99795.19
2023-05-14T23:52:21.571Z,99791.25
2023-05-14T23:55:24.870Z,99784.53
2023-05-14T23:58:29.971Z,99775.91
